wowporn.com alexa rank chart, wowporn.com alexa rank daily changes

wowporn.com alexa rank chart, wowporn.com alexa rank daily changes

wowporn.com
Actual rank:
221 452

RANK HISTORY

Date Rank Diff
2017/10/17 221 452 -4 305
2017/10/16 225 757 -4 244
2017/10/14 230 001 -183
2017/10/13 230 184 -6 808
2017/10/12 236 992 +4 093
2017/10/11 232 899 +3 216
2017/10/10 229 683 +5 572
2017/10/09 224 111 +524
2017/10/08 223 587 -3 975
2017/10/07 227 562 +3 171
2017/10/06 224 391 +2 348
2017/10/05 222 043 -1 724
2017/10/04 223 767 -6 103
2017/10/03 229 870 -6 634
2017/10/02 236 504 +5 993
2017/10/01 230 511 -250
2017/09/30 230 761 +880
2017/09/29 229 881 +6 627
2017/09/28 223 254 +3 307
2017/09/27 219 947 -1 933
2017/09/26 221 880 -4 096
2017/09/25 225 976 +329
2017/09/24 225 647 -1 925
2017/09/23 227 572 +7 539
2017/09/22 220 033 -3 529
2017/09/20 223 562 -4 426
2017/09/19 227 988 -8 076
2017/09/18 236 064 +5 127
2017/09/17 230 937 +814
2017/09/16 230 123 -1 147
2017/09/15 231 270 +2 361
2017/09/14 228 909 +3 227
2017/09/13 225 682 +7 125
2017/09/12 218 557 -3 440
2017/09/11 221 997 -4 683
2017/09/10 226 680 -2 296
2017/09/09 228 976 +2 851
2017/09/08 226 125 +8 303
2017/09/07 217 822 +51
2017/09/06 217 771 +3 719
2017/09/05 214 052 +5 760
2017/09/04 208 292 +4 705
2017/09/03 203 587 +1 210
2017/09/02 202 377 -2 935
2017/09/01 205 312 +4 463
2017/08/31 200 849 +1 756
2017/08/30 199 093 +202
2017/08/29 198 891 -4 649
2017/08/28 203 540 -4 127
2017/08/27 207 667 +2 977
2017/08/26 204 690 +5 071
2017/08/25 199 619 +2 068
2017/08/24 197 551 +3 593
2017/08/23 193 958 -910
2017/08/22 194 868 +9 514
2017/08/21 185 354 +2 720
2017/08/20 182 634 -4 116
2017/08/19 186 750 +683
2017/08/18 186 067

WIDGET FOR YOUR SITE

DOMAINS WITH THE NEAREST RANK

Domain Rank
forum2x2.com 221 447
theatreinchicago.com 221 448
mirovinsko.hr 221 449
wallangues.be 221 450
marocdroit.com 221 451
wowporn.com 221 452
eiendomsmegler1.no 221 453
onlytrain.com 221 454
birbhum.gov.in 221 455
filemirror.co 221 456
potenzguru.org 221 457

DOMAINS WITH THE NEAREST RANK BY TLD .com

Domain Rank
mararun.com 221 445
adlinkth.com 221 446
forum2x2.com 221 447
theatreinchicago.com 221 448
marocdroit.com 221 451
wowporn.com 221 452
onlytrain.com 221 454
buttonspace.com 221 459
kalafarsh.com 221 460
acbmma.com 221 462
latestplasticsurgery.com 221 469